KSDY/SDY METAR and TAF weather

Enter ICAO airport designator
Station Type Date Time Source
KSDY METAR 2021/03/05 13:17 UTC NOAA

KSDY 051317Z AUTO 00000KT 6SM BR SCT002 M07/M08 A3025 RMK AO2 FZRANO


Station Type Date Time Source
KSDY Decoded METAR 2021/03/05 13:17 UTC NOAA

Sidney-Richland, MT, United States (KSDY) 47-42N 104-12W
Mar 05, 2021 - 08:17 AM EST / 2021.03.05 1317 UTC
Wind: Calm:0
Visibility: 6 mile(s):0
Sky conditions: partly cloudy
Weather: mist
Temperature: 19 F (-7 C)
Dew Point: 17 F (-8 C)
Relative Humidity: 92%
Pressure (altimeter): 30.25 in. Hg (1024 hPa)
ob: KSDY 051317Z AUTO 00000KT 6SM BR SCT002 M07/M08 A3025 RMK AO2 FZRANO
cycle: 13

Station Type Date Time Source
KSDY TAF 2021/03/05 12:22 UTC NOAA

TAF KSDY 051120Z 0512/0612 VRB05KT 4SM BR SCT001
TEMPO 0512/0514 1SM BR BKN001
FM051500 VRB05KT P6SM SCT200
FM052100 18010KT P6SM FEW200
FM060100 15005KT P6SM SKC

Example: see airport list